WEATHER DATA

YESTERDAY
Time Temp. Dewp. Hum. Wind dir Wind speed Wind gust Bar. 1h Prec. 24h Prec.
00:07 18 15.8 87 332 0.8 3.1 1006.9 0.2970 0.1000
00:18 17.9 15.9 88 321 0.8 2.5 1006.7 0.4960 0.3000
00:28 17.7 15.9 89 315 0.3 1.1 1006.6 0.5950 0.4000
00:38 17.6 15.8 89 341 0.3 1.7 1006.5 0.6940 0.5000
00:48 17.5 15.8 90 323 0.8 3.1 1006.4 0.7930 0.7000
00:58 17.3 15.8 91 318 0.8 3.1 1006.1 0.7930 0.8000
01:08 17.2 15.9 92 308 0.8 2.5 1006 0.4950 0.8000
01:18 17.2 15.9 92 338 0.8 2.2 1005.8 0.6930 1.0000
01:29 17.1 15.8 92 351 0.8 2.2 1005.7 0.5940 1.0000
01:39 17.1 16 93 352 0.8 2.2 1005.5 0.3960 1.0000
01:48 17 15.9 93 336 0.8 3.1 1005.5 0.1980 1.0000
01:58 17 15.9 93 346 0.3 3.6 1005.3 0.1980 1.0000
02:09 17 15.9 93 338 0.8 2.8 1005.2 0.0990 1.0000
02:19 17.1 16 93 319 0.3 1.7 1005 0.0000 1.0000
02:29 17.1 16 93 339 0.8 1.7 1004.9 0.0000 1.0000
02:39 17.1 16 93 6 0.3 2.2 1004.8 0.0000 1.0000
02:49 17.1 16 93 341 0.8 3.1 1004.6 0.0000 1.0000
02:59 17.1 16 93 330 0.3 1.1 1004.4 0.0000 1.0000
03:09 17.1 16 93 348 0.3 1.7 1004.3 0.0000 1.0000
03:20 17.1 16 93 315 0.8 1.7 1004.4 0.0000 1.0000
03:30 17.1 16 93 0 0.8 2.5 1004.2 0.0000 1.0000
03:40 17.1 15.8 92 303 1.1 3.1 1004 0.0000 1.0000
03:50 17.1 16 93 352 0.8 2.8 1003.8 0.0000 1.0000
04:00 17.1 16 93 332 0.3 2.2 1003.8 0.0000 1.0000
04:10 17.1 16 93 308 0.8 2.2 1003.8 0.0000 1.0000
04:20 17.2 16.1 93 315 0.8 3.1 1003.6 0.0000 1.0000
04:31 17.2 15.9 92 330 0.8 2.5 1003.5 0.0000 1.0000
04:41 17.2 15.9 92 307 1.1 3.9 1003.5 0.0990 1.1000
04:50 17.1 15.8 92 297 0.8 2.2 1003.5 0.2970 1.3000
05:00 17 15.9 93 307 0.8 1.7 1003.4 0.2970 1.3000
05:11 17 15.9 93 297 0.8 2.5 1003.4 0.3960 1.4000
05:21 16.9 15.9 94 315 0.8 1.7 1003.3 0.8930 1.9000
05:31 16.8 15.8 94 315 0.8 4.2 1003.3 1.2900 2.3000
05:41 16.7 15.9 95 321 0.8 1.7 1003.2 1.5890 2.7000
05:47 16.6 15.8 95 326 0.8 4.4 1003.3 1.3910 2.7000
05:58 16.6 16 96 315 0.8 3.1 1003.3 1.4900 2.8000
06:07 16.5 15.9 96 333 0.8 2.5 1003.2 1.3910 2.8000
06:17 16.5 16 97 326 0.8 2.2 1003.3 1.0930 3.0000
06:28 16.5 16 97 323 0.8 2.2 1003.3 0.9940 3.3000
06:38 16.4 16.1 98 315 0.8 2.2 1003.1 0.5960 3.3000
06:48 16.5 16.2 98 327 0.8 2.2 1003.1 0.5960 3.3000
06:58 16.5 16.2 98 306 0.8 2.8 1003.1 0.5960 3.4000
07:08 16.5 16.2 98 344 0.8 3.1 1003.2 0.5960 3.4000
07:18 16.5 16.3 99 320 0.8 1.7 1003.1 0.2970 3.5000
07:28 16.5 16.3 99 300 0.8 3.1 1003.1 0.2970 3.6000
07:39 16.5 16.3 99 315 0.3 1.7 1003.1 0.2970 3.6000
07:49 16.5 16.3 99 303 0.8 2.2 1003.1 0.1980 3.6000
07:59 16.6 16.4 99 345 0.3 1.7 1003 0.1980 3.6000
08:08 16.6 16.4 99 298 1.1 3.6 1003.1 0.0990 3.6000
08:19 16.7 16.7 100 303 0.8 5 1003.2 0.0990 3.6000
08:29 16.8 16.8 100 311 0.8 3.1 1003.3 0.0000 3.6000
08:39 16.8 16.8 100 315 0.8 2.2 1003.4 0.0000 3.6000
08:49 16.9 16.9 100 315 0.8 2.2 1003.3 0.0000 3.6000
09:00 17 17 100 330 0.8 2.5 1003.3 0.0000 3.6000
09:09 17.1 17.1 100 292 0.8 3.9 1003.3 0.0000 3.6000
09:19 17.1 17.1 100 332 0.8 2.5 1003.3 0.0000 3.6000
09:30 17.2 17.2 100 315 0.8 2.5 1003.3 0.0000 3.6000
09:40 17.3 17.3 100 306 0.8 2.5 1003.5 0.0000 3.6000
09:50 17.4 17.4 100 298 1.1 3.1 1003.5 0.0000 3.6000
10:00 17.5 17.5 100 308 0.8 2.8 1003.5 0.0000 3.6000
10:10 17.6 17.6 100 303 1.1 5 1003.5 0.0000 3.6000
10:20 17.7 17.7 100 312 1.1 3.1 1003.6 0.0000 3.6000
10:30 17.8 17.8 100 291 1.1 3.9 1003.6 0.0000 3.6000
10:41 17.9 17.9 100 292 1.1 4.2 1003.7 0.0000 3.6000
10:51 18 18 100 296 1.1 4.4 1003.8 0.0000 3.6000
11:01 18.1 18.1 100 300 0.8 3.6 1003.7 0.0000 3.6000
11:10 18.2 18.2 100 295 1.1 3.6 1003.7 0.0000 3.6000
11:21 18.4 18.4 100 292 1.1 4.4 1003.8 0.0000 3.6000
11:34 18.4 18.2 99 319 0.8 6.7 1003.9 0.0000 3.6000
11:44 18.7 18.5 99 308 0.8 2.5 1003.9 0.0000 3.6000
11:54 19 18.8 99 303 0.8 2.2 1003.9 0.0000 3.6000
12:04 19.3 19 98 306 1.1 3.1 1003.9 0.0000 3.6000
12:15 19.5 19 97 307 1.1 3.1 1003.9 0.0000 3.6000
12:25 19.5 18.7 95 294 0.8 3.1 1003.9 0.0000 3.6000
12:34 19.8 19 95 315 0.8 3.6 1003.9 0.0000 3.6000
12:44 20 19 94 286 1.4 3.1 1004 0.0000 3.6000
12:55 20.1 18.8 92 311 0.8 2.2 1004 0.0000 3.6000
13:15 20.3 18.8 91 289 0.8 3.6 1004 0.0000 3.6000
13:25 20.4 18.7 90 307 0.8 2.8 1004.1 0.0000 3.6000
13:35 20.4 18.7 90 304 0.8 2.8 1003.9 0.0000 3.6000
13:45 20.5 18.8 90 343 0.8 2.5 1003.9 0.0000 3.6000
13:55 20.6 18.9 90 315 0.3 2.5 1003.8 0.0000 3.6000
14:06 20.6 18.7 89 330 0.8 2.5 1003.8 0.0000 3.6000
14:16 20.7 18.8 89 351 0.8 2.2 1003.6 0.0000 3.6000
14:25 20.8 18.7 88 26 0.8 2.5 1003.6 0.0000 3.6000
14:36 20.8 18.7 88 352 0.8 2.5 1003.5 0.0000 3.6000
14:46 20.9 18.8 88 324 0.3 1.7 1003.6 0.0000 3.6000
14:56 20.8 18.7 88 8 0.3 2.8 1003.7 0.0000 3.6000
15:06 20.8 18.6 87 307 0.8 3.1 1003.7 0.0000 3.6000
15:17 20.7 18.5 87 292 1.1 2.8 1003.7 0.0000 3.6000
15:26 20.6 18.2 86 325 0.8 3.1 1003.7 0.0000 3.6000
15:36 20.6 18.5 88 329 0.8 3.6 1003.6 0.0000 3.6000
15:46 20.5 18.6 89 332 0.8 2.5 1003.9 0.0000 3.6000
15:57 20.4 18.7 90 319 0.3 1.7 1003.8 0.0000 3.6000
16:07 20.4 18.7 90 310 0.8 1.7 1003.8 0.0000 3.6000
16:17 20.5 19 91 302 0.3 1.7 1003.8 0.0000 3.6000
16:27 20.7 19.2 91 289 0.8 2.5 1003.8 0.0000 3.6000
16:37 20.7 18.8 89 295 1.1 3.6 1003.8 0.0000 3.6000
16:47 20.6 18.7 89 270 0.3 1.7 1003.9 0.0000 3.6000
16:57 20.6 18.5 88 300 0.8 2.5 1003.6 0.0000 3.6000
17:08 20.7 18.6 88 288 1.1 2.8 1003.8 0.0000 3.6000
17:18 20.8 18.2 85 288 1.4 3.1 1003.7 0.0000 3.6000
17:27 20.8 17.8 83 304 1.1 4.4 1003.8 0.0000 3.6000
17:38 20.8 17.8 83 281 0.8 3.1 1003.7 0.0000 3.6000
17:48 20.8 17.4 81 278 1.4 3.9 1003.6 0.0000 3.6000
17:58 20.7 17.5 82 283 1.4 2.8 1003.7 0.0000 3.6000
18:08 20.7 17.3 81 288 1.1 3.6 1003.9 0.0000 3.6000
18:19 20.8 17.2 80 270 1.1 3.6 1003.9 0.0000 3.6000
18:28 20.9 17.1 79 284 0.8 2.8 1003.9 0.0000 3.6000
18:38 20.9 16.7 77 281 1.1 2.8 1003.9 0.0000 3.6000
18:48 20.9 16.7 77 285 1.1 2.8 1004 0.0000 3.6000
18:59 20.8 16.4 76 279 1.1 3.1 1004.1 0.0000 3.6000
19:09 20.6 16.2 76 290 1.4 3.9 1004 0.0000 3.6000
19:19 20.4 15.8 75 293 1.1 2.8 1004 0.0000 3.6000
19:29 20.2 15.6 75 270 1.1 3.1 1004.1 0.0000 3.6000
19:39 20.1 15.5 75 296 0.8 2.2 1004.1 0.0000 3.6000
19:49 20 15.6 76 270 0.8 2.8 1004 0.0000 3.6000
19:59 19.8 15.5 76 295 1.1 3.1 1004.3 0.0000 3.6000
20:10 19.5 15.4 77 289 1.1 2.5 1004.4 0.0000 3.6000
20:20 19.5 15.6 78 290 0.8 2.5 1003.9 0.0000 3.6000
20:29 19.5 15.8 79 270 0.8 2.5 1004.2 0.0000 3.6000
20:40 19.5 16 80 285 1.1 3.1 1004.3 0.0000 3.6000
20:50 19.4 16.1 81 288 0.8 1.4 1004.1 0.0000 3.6000
21:00 19.3 16 81 302 0.3 1.4 1004.3 0.0000 3.6000
21:10 19.2 15.9 81 305 0.8 2.2 1004.3 0.0000 3.6000
21:21 19.1 16 82 308 0.3 1.4 1004.5 0.0000 3.6000
21:30 19 16 83 270 0.3 1.1 1004.6 0.0000 3.6000
21:40 19 16 83 304 0.3 1.7 1004.6 0.0000 3.6000
21:50 18.9 16.1 84 270 0.3 2.5 1004.7 0.0000 3.6000
22:01 18.8 16 84 296 0.8 2.2 1004.7 0.0000 3.6000
22:11 18.7 15.9 84 306 0.8 2.5 1004.6 0.0000 3.6000
22:21 18.6 16 85 299 0.8 2.5 1004.5 0.0000 3.6000
22:31 18.5 15.9 85 315 0.3 1.7 1004.4 0.0000 3.6000
22:41 18.4 15.8 85 289 0.8 1.7 1004.5 0.0000 3.6000
22:51 18.4 15.8 85 303 0.3 1.4 1004.5 0.0000 3.6000
23:01 18.3 15.7 85 315 0.3 1.7 1004.4 0.0000 3.6000
23:12 18.2 15.8 86 315 0.3 1.1 1004.3 0.0000 3.6000
23:22 18.1 15.7 86 325 0.8 1.4 1004.4 0.0000 3.6000
23:31 18 15.6 86 315 0.3 1.7 1004.3 0.0000 3.6000
23:42 18 15.6 86 302 0.3 1.1 1004.6 0.0000 3.6000
23:52 17.9 15.5 86 315 0.3 1.4 1004.5 0.0000 3.6000

DAY STATISTIC

2019-08-17
TEMPERATURE
AVERAGE
18.5
HIGH
20.9
14:46
LOW
16.4
06:38
PRESSURE
AVERAGE
1004.0
HIGH
1006.9
00:07
LOW
1003.0
07:59
DEWPOINT
AVERAGE
16.9
HIGH
19.2
16:27
LOW
15.4
20:10
HUMIDITY
AVERAGE
90
HIGH
100
08:19
LOW
75
19:19
WIND SPEED
AVERAGE
0.8
HIGH
1.4
12:44
WIND GUST
AVERAGE
2.7
HIGH
6.7
11:34
WIND DIRECTION
PREVAILING
NW
64.5%
N
12.8
NE
0.7
E
0.0
SE
0.0
S
0.0
SW
0.0
W
22.0
NW
64.5
PRECIPITATION
RAIN HOUR
1.6
RAIN DAY
3.6
TEMPERATURE (°C)
LOW
16.4
HIGH
20.9
AVERAGE
18.5
PRESSURE (hpa)
LOW
1003.0
HIGH
1006.9
AVERAGE
1004.0
DEVICE